Time;durP1;ratioP1;P1;durP2;ratioP2;P2;SDS_P1;SDS_P2;PMS_P1;PMS_P2;Temp;Humidity;BMP_temperature;BMP_pressure;BME280_temperature;BME280_humidity;BME280_pressure;Samples;Min_cycle;Max_cycle;Signal;HPM_P1;HPM_P2
2021/08/13 00:02:17;;;;;;;6.85;2.97;;;;;;;;;;5111948;27;20381;-68
2021/08/13 00:04:44;;;;;;;6.05;2.95;;;;;;;;;;5110908;28;20379;-67
2021/08/13 00:07:10;;;;;;;6.10;2.60;;;;;;;;;;5111810;28;20044;-68
2021/08/13 00:09:36;;;;;;;6.50;2.70;;;;;;;;;;5111202;28;20480;-68
2021/08/13 00:12:02;;;;;;;5.55;2.80;;;;;;;;;;5110850;28;20032;-69
2021/08/13 00:14:29;;;;;;;5.90;2.83;;;;;;;;;;5111303;28;20020;-67
2021/08/13 00:16:55;;;;;;;3.70;2.03;;;;;;;;;;5111101;28;20020;-66
2021/08/13 00:19:21;;;;;;;6.60;2.80;;;;;;;;;;5111069;28;20020;-66
2021/08/13 00:22:06;;;;;;;9.43;2.88;;;;;;;;;;5111839;27;21040;-66
2021/08/13 00:24:32;;;;;;;5.47;2.92;;;;;;;;;;5111319;28;20480;-66
2021/08/13 00:26:58;;;;;;;5.70;2.65;;;;;;;;;;5111056;28;20430;-66
2021/08/13 00:29:25;;;;;;;6.40;2.85;;;;;;;;;;5111608;28;20024;-66
2021/08/13 00:31:51;;;;;;;5.60;2.50;;;;;;;;;;5111169;28;20030;-66
2021/08/13 00:36:39;;;;;;;5.93;2.88;;;;;;;;;;5111469;27;20405;-65
2021/08/13 00:39:05;;;;;;;7.05;3.00;;;;;;;;;;5111448;28;20032;-67
2021/08/13 00:41:31;;;;;;;10.88;3.22;;;;;;;;;;5110822;28;20137;-67
2021/08/13 00:43:57;;;;;;;6.68;2.92;;;;;;;;;;5111487;28;20065;-67
2021/08/13 00:46:24;;;;;;;9.07;2.80;;;;;;;;;;5110119;28;20531;-65
2021/08/13 00:48:50;;;;;;;5.72;2.78;;;;;;;;;;5110768;28;20028;-65
2021/08/13 00:51:16;;;;;;;6.32;2.75;;;;;;;;;;5111243;28;20024;-67
2021/08/13 00:53:42;;;;;;;7.57;2.75;;;;;;;;;;5111001;28;20027;-65
2021/08/13 00:56:09;;;;;;;4.93;2.38;;;;;;;;;;5110465;28;20036;-67
2021/08/13 00:58:35;;;;;;;9.23;3.15;;;;;;;;;;5111513;28;20024;-67
2021/08/13 01:03:32;;;;;;;7.93;2.70;;;;;;;;;;5111507;27;20924;-67
2021/08/13 01:05:58;;;;;;;8.85;3.33;;;;;;;;;;5111280;28;20031;-66
2021/08/13 01:08:24;;;;;;;7.90;3.03;;;;;;;;;;5110937;28;20030;-67
2021/08/13 01:10:58;;;;;;;7.97;3.45;;;;;;;;;;5111757;28;20483;-67
2021/08/13 01:13:32;;;;;;;8.00;3.33;;;;;;;;;;5127006;28;20044;-67
2021/08/13 01:18:12;;;;;;;6.88;2.90;;;;;;;;;;5111590;27;20518;-65
2021/08/13 01:20:58;;;;;;;7.63;3.28;;;;;;;;;;5111654;28;20569;-67
2021/08/13 01:23:32;;;;;;;5.43;2.95;;;;;;;;;;5111034;28;20031;-67
2021/08/13 01:26:03;;;;;;;4.97;2.70;;;;;;;;;;5109970;28;20089;-65
2021/08/13 01:28:50;;;;;;;5.70;2.75;;;;;;;;;;5111171;28;20057;-67
2021/08/13 01:31:19;;;;;;;4.72;2.58;;;;;;;;;;5110886;28;20099;-66
2021/08/13 01:33:47;;;;;;;7.63;3.17;;;;;;;;;;5109703;28;20016;-66
2021/08/13 01:36:13;;;;;;;7.88;3.42;;;;;;;;;;5109196;28;20023;-66
2021/08/13 01:38:40;;;;;;;6.38;2.85;;;;;;;;;;5111365;28;20365;-66
2021/08/13 01:41:08;;;;;;;7.80;3.28;;;;;;;;;;5111144;28;20541;-66
2021/08/13 01:43:35;;;;;;;5.00;2.17;;;;;;;;;;5110485;28;20028;-66
2021/08/13 01:46:02;;;;;;;6.00;2.65;;;;;;;;;;5110843;28;20019;-66
2021/08/13 01:48:29;;;;;;;7.50;2.72;;;;;;;;;;5109533;28;20020;-66
2021/08/13 01:50:55;;;;;;;7.90;3.22;;;;;;;;;;5110473;28;20448;-66
2021/08/13 01:53:22;;;;;;;6.38;2.78;;;;;;;;;;5110690;28;20043;-66
2021/08/13 01:55:49;;;;;;;6.95;2.65;;;;;;;;;;5110603;28;20027;-66
2021/08/13 01:58:16;;;;;;;7.20;3.38;;;;;;;;;;5108923;28;20476;-66
2021/08/13 02:02:04;;;;;;;5.93;2.63;;;;;;;;;;5111511;27;20393;-65
2021/08/13 02:04:59;;;;;;;6.15;3.00;;;;;;;;;;5111219;27;20310;-65
2021/08/13 02:07:25;;;;;;;7.53;2.85;;;;;;;;;;5110071;28;20031;-65
2021/08/13 02:09:51;;;;;;;6.95;3.08;;;;;;;;;;5111194;28;20528;-65
2021/08/13 02:12:18;;;;;;;3.85;2.15;;;;;;;;;;5111014;28;20024;-65
2021/08/13 02:14:44;;;;;;;8.10;2.80;;;;;;;;;;5111489;28;20019;-65
2021/08/13 02:18:48;;;;;;;6.28;3.25;;;;;;;;;;5111022;27;20389;-65
2021/08/13 02:21:16;;;;;;;5.40;2.60;;;;;;;;;;5111336;28;20535;-65
2021/08/13 02:23:42;;;;;;;5.43;2.83;;;;;;;;;;5111418;28;20077;-65
2021/08/13 02:26:08;;;;;;;5.90;2.75;;;;;;;;;;5110849;28;20024;-65
2021/08/13 02:28:34;;;;;;;5.32;2.55;;;;;;;;;;5111201;28;20043;-65
2021/08/13 02:31:00;;;;;;;5.18;2.47;;;;;;;;;;5111267;28;20430;-65
2021/08/13 02:33:27;;;;;;;6.25;2.95;;;;;;;;;;5110699;28;20027;-65
2021/08/13 02:35:54;;;;;;;6.75;3.22;;;;;;;;;;5109773;28;20027;-65
2021/08/13 02:39:35;;;;;;;6.03;2.83;;;;;;;;;;5111779;27;20517;-65
2021/08/13 02:42:03;;;;;;;7.55;3.15;;;;;;;;;;5111510;28;20035;-65
2021/08/13 02:46:32;;;;;;;4.78;2.65;;;;;;;;;;5111696;27;20815;-65
2021/08/13 02:48:59;;;;;;;7.85;2.80;;;;;;;;;;5111272;28;20028;-65
2021/08/13 02:51:30;;;;;;;5.07;2.53;;;;;;;;;;5111512;28;20472;-66
2021/08/13 02:53:57;;;;;;;7.45;3.20;;;;;;;;;;5126805;28;20373;-66
2021/08/13 02:56:26;;;;;;;6.63;3.00;;;;;;;;;;5111162;28;20102;-66
2021/08/13 02:58:54;;;;;;;6.78;3.00;;;;;;;;;;5111471;28;20099;-66
2021/08/13 03:02:16;;;;;;;6.57;2.85;;;;;;;;;;5111043;27;20489;-65
2021/08/13 03:04:44;;;;;;;6.90;2.67;;;;;;;;;;5127395;28;20028;-65
2021/08/13 03:07:12;;;;;;;5.95;2.53;;;;;;;;;;5111216;28;20396;-65
2021/08/13 03:09:39;;;;;;;7.55;3.20;;;;;;;;;;5110788;28;20027;-65
2021/08/13 03:12:05;;;;;;;6.70;3.10;;;;;;;;;;5126973;28;20020;-65
2021/08/13 03:14:31;;;;;;;5.90;2.95;;;;;;;;;;5126947;28;20028;-66
2021/08/13 03:16:58;;;;;;;6.40;2.85;;;;;;;;;;5127078;28;20111;-65
2021/08/13 03:19:24;;;;;;;8.95;2.92;;;;;;;;;;5111038;28;20024;-65
2021/08/13 03:22:52;;;;;;;6.13;2.97;;;;;;;;;;5090806;28;20421;-66
2021/08/13 03:25:58;;;;;;;9.02;2.83;;;;;;;;;;5111713;27;20513;-65
2021/08/13 03:30:44;;;;;;;7.18;2.55;;;;;;;;;;5111047;27;20400;-65
2021/08/13 03:33:11;;;;;;;6.53;3.13;;;;;;;;;;5111439;28;20028;-68
2021/08/13 03:35:38;;;;;;;6.25;2.75;;;;;;;;;;5111819;28;20024;-65
2021/08/13 03:38:04;;;;;;;6.93;2.88;;;;;;;;;;5111792;28;20024;-65
2021/08/13 03:40:30;;;;;;;9.65;3.15;;;;;;;;;;5111141;28;20069;-65
2021/08/13 03:42:57;;;;;;;8.95;3.15;;;;;;;;;;5110867;28;20541;-65
2021/08/13 03:45:23;;;;;;;10.80;4.00;;;;;;;;;;5111091;28;20020;-65
2021/08/13 03:47:49;;;;;;;6.72;2.78;;;;;;;;;;5110998;28;20035;-65
2021/08/13 03:50:16;;;;;;;6.45;3.40;;;;;;;;;;5110758;28;20036;-67
2021/08/13 03:54:03;;;;;;;5.10;2.80;;;;;;;;;;5111861;27;20510;-65
2021/08/13 03:56:29;;;;;;;6.85;3.47;;;;;;;;;;5111530;28;20024;-65
2021/08/13 03:58:56;;;;;;;5.63;2.75;;;;;;;;;;5111002;28;20024;-65
2021/08/13 04:01:22;;;;;;;8.07;3.55;;;;;;;;;;5109962;28;20451;-65
2021/08/13 04:03:48;;;;;;;9.02;3.40;;;;;;;;;;5111002;28;20051;-65
2021/08/13 04:06:14;;;;;;;5.63;2.70;;;;;;;;;;5110091;28;20028;-66
2021/08/13 04:08:40;;;;;;;5.40;2.72;;;;;;;;;;5111157;28;20030;-66
2021/08/13 04:11:06;;;;;;;6.63;2.85;;;;;;;;;;5110670;28;20483;-66
2021/08/13 04:13:33;;;;;;;7.50;2.80;;;;;;;;;;5110911;28;20039;-66
2021/08/13 04:15:59;;;;;;;5.10;2.33;;;;;;;;;;5109754;28;20015;-69
2021/08/13 04:18:25;;;;;;;6.85;3.05;;;;;;;;;;5110669;28;20032;-69
2021/08/13 04:20:51;;;;;;;7.28;3.33;;;;;;;;;;5111337;28;20494;-68
2021/08/13 04:23:17;;;;;;;7.72;3.10;;;;;;;;;;5111076;28;20031;-70
2021/08/13 04:25:44;;;;;;;5.88;2.35;;;;;;;;;;5109119;28;20024;-68
2021/08/13 04:28:10;;;;;;;4.88;2.22;;;;;;;;;;5110751;28;20024;-68
2021/08/13 04:30:36;;;;;;;5.40;2.28;;;;;;;;;;5109372;28;20081;-69
2021/08/13 04:33:09;;;;;;;7.78;3.25;;;;;;;;;;5108961;28;20086;-69
2021/08/13 04:35:35;;;;;;;7.63;3.20;;;;;;;;;;5110609;28;20062;-69
2021/08/13 04:39:12;;;;;;;6.15;2.67;;;;;;;;;;5111454;27;20446;-69
2021/08/13 04:43:46;;;;;;;4.88;2.70;;;;;;;;;;5111823;27;20408;-68
2021/08/13 04:46:12;;;;;;;6.90;2.60;;;;;;;;;;5110964;28;20034;-68
2021/08/13 04:49:19;;;;;;;8.43;3.53;;;;;;;;;;5111411;27;20392;-68
2021/08/13 04:51:45;;;;;;;7.13;3.22;;;;;;;;;;5111344;28;20031;-69
2021/08/13 04:54:11;;;;;;;7.88;3.10;;;;;;;;;;5110862;28;20480;-70
2021/08/13 04:56:38;;;;;;;7.85;2.80;;;;;;;;;;5109952;28;20032;-68
2021/08/13 04:59:04;;;;;;;13.02;3.42;;;;;;;;;;5111223;28;20020;-69
2021/08/13 05:01:30;;;;;;;6.63;2.33;;;;;;;;;;5109528;28;20023;-67
2021/08/13 05:04:30;;;;;;;6.55;2.53;;;;;;;;;;5111419;27;20400;-68
2021/08/13 05:06:56;;;;;;;6.15;2.58;;;;;;;;;;5111433;28;20020;-69
2021/08/13 05:09:23;;;;;;;6.68;3.00;;;;;;;;;;5110877;28;20047;-68
2021/08/13 05:11:49;;;;;;;8.93;3.17;;;;;;;;;;5111234;28;20024;-69
2021/08/13 05:15:25;;;;;;;8.75;3.67;;;;;;;;;;5111325;27;20393;-69
2021/08/13 05:17:51;;;;;;;8.63;3.95;;;;;;;;;;5111349;28;20472;-67
2021/08/13 05:21:27;;;;;;;7.30;3.38;;;;;;;;;;5111430;27;20397;-66
2021/08/13 05:25:27;;;;;;;10.30;3.60;;;;;;;;;;5070852;28;20437;-66
2021/08/13 05:27:53;;;;;;;7.28;3.47;;;;;;;;;;5069486;28;20124;-65
2021/08/13 05:30:57;;;;;;;7.70;3.67;;;;;;;;;;5111555;27;20393;-65
2021/08/13 05:33:23;;;;;;;9.48;4.45;;;;;;;;;;5111506;28;20027;-68
2021/08/13 05:35:49;;;;;;;13.25;4.38;;;;;;;;;;5110832;28;20051;-65
2021/08/13 05:42:32;;;;;;;9.13;3.90;;;;;;;;;;5070894;28;20498;-68
2021/08/13 05:44:58;;;;;;;7.43;3.75;;;;;;;;;;5071238;28;20078;-67
2021/08/13 05:47:25;;;;;;;8.63;2.90;;;;;;;;;;5070763;28;20031;-66
2021/08/13 05:49:52;;;;;;;6.88;2.80;;;;;;;;;;5069336;28;20425;-66
2021/08/13 05:53:13;;;;;;;9.25;2.90;;;;;;;;;;5112220;27;20505;-65
2021/08/13 05:55:39;;;;;;;7.03;2.97;;;;;;;;;;5110074;28;20099;-65
2021/08/13 05:58:37;;;;;;;7.47;2.92;;;;;;;;;;5110943;27;20112;-67
2021/08/13 06:01:03;;;;;;;7.95;3.30;;;;;;;;;;5111433;28;20048;-66
2021/08/13 06:03:29;;;;;;;5.80;2.85;;;;;;;;;;5110946;28;20052;-66
2021/08/13 06:05:56;;;;;;;4.88;2.75;;;;;;;;;;5111217;28;20027;-66
2021/08/13 06:08:22;;;;;;;7.50;2.83;;;;;;;;;;5111441;28;20456;-68
2021/08/13 06:10:48;;;;;;;5.95;2.65;;;;;;;;;;5110716;28;20046;-67
2021/08/13 06:13:18;;;;;;;6.00;2.92;;;;;;;;;;5111085;28;20020;-67
2021/08/13 06:15:44;;;;;;;6.90;2.80;;;;;;;;;;5111029;28;20066;-66
2021/08/13 06:18:10;;;;;;;6.82;2.60;;;;;;;;;;5112856;28;20043;-66
2021/08/13 06:20:36;;;;;;;6.03;2.92;;;;;;;;;;5107176;28;20159;-66
2021/08/13 06:23:03;;;;;;;9.65;3.22;;;;;;;;;;5110801;28;20028;-66
2021/08/13 06:25:30;;;;;;;6.90;2.80;;;;;;;;;;5110380;28;20024;-65
2021/08/13 06:27:56;;;;;;;8.13;3.53;;;;;;;;;;5110741;28;20028;-65
2021/08/13 06:30:23;;;;;;;9.88;3.92;;;;;;;;;;5110621;28;20024;-67
2021/08/13 06:32:50;;;;;;;7.18;3.30;;;;;;;;;;5110470;28;20032;-66
2021/08/13 06:35:16;;;;;;;7.95;3.72;;;;;;;;;;5110595;28;20030;-67
2021/08/13 06:38:00;;;;;;;10.52;5.50;;;;;;;;;;5110556;28;20059;-67
2021/08/13 06:40:26;;;;;;;8.88;3.33;;;;;;;;;;5110135;28;20077;-68
2021/08/13 06:42:53;;;;;;;8.73;3.53;;;;;;;;;;5109158;28;20020;-66
2021/08/13 06:45:25;;;;;;;5.35;2.58;;;;;;;;;;5109013;28;20048;-67
2021/08/13 06:47:52;;;;;;;5.10;2.70;;;;;;;;;;5109992;28;20031;-65
2021/08/13 06:50:18;;;;;;;5.75;2.60;;;;;;;;;;5110119;28;20016;-66
2021/08/13 06:52:45;;;;;;;10.23;2.90;;;;;;;;;;5109694;28;20028;-65
2021/08/13 06:55:11;;;;;;;7.25;2.40;;;;;;;;;;5110352;28;20081;-66
2021/08/13 06:57:37;;;;;;;6.05;2.60;;;;;;;;;;5122280;28;20070;-66
2021/08/13 07:00:05;;;;;;;6.90;3.00;;;;;;;;;;5130221;28;20501;-67
2021/08/13 07:02:31;;;;;;;4.30;2.35;;;;;;;;;;5130453;28;20030;-66
2021/08/13 07:04:57;;;;;;;6.40;2.58;;;;;;;;;;5129998;28;20019;-69
2021/08/13 07:07:24;;;;;;;5.30;2.25;;;;;;;;;;5125381;28;20518;-67
2021/08/13 07:09:50;;;;;;;5.70;2.40;;;;;;;;;;5114975;28;20426;-67
2021/08/13 07:12:16;;;;;;;4.47;2.47;;;;;;;;;;5116544;28;20036;-67
2021/08/13 07:14:43;;;;;;;4.25;1.85;;;;;;;;;;5116004;28;20051;-66
2021/08/13 07:17:10;;;;;;;6.88;2.78;;;;;;;;;;5116630;28;20373;-66
2021/08/13 07:19:36;;;;;;;4.32;2.50;;;;;;;;;;5116294;28;20051;-66
2021/08/13 07:22:03;;;;;;;4.85;2.20;;;;;;;;;;5115818;28;20076;-67
2021/08/13 07:24:29;;;;;;;4.22;2.45;;;;;;;;;;5116276;28;20109;-67
2021/08/13 07:26:55;;;;;;;8.50;3.35;;;;;;;;;;5116122;28;20012;-66
2021/08/13 07:29:22;;;;;;;4.40;2.28;;;;;;;;;;5115928;28;20057;-67
2021/08/13 07:31:49;;;;;;;5.32;2.53;;;;;;;;;;5116142;28;20023;-66
2021/08/13 07:34:15;;;;;;;5.70;2.45;;;;;;;;;;5116187;28;20032;-67
2021/08/13 07:36:41;;;;;;;5.20;2.33;;;;;;;;;;5097233;28;20019;-64
2021/08/13 07:39:07;;;;;;;5.07;2.70;;;;;;;;;;5112833;28;20027;-65
2021/08/13 07:41:33;;;;;;;5.20;2.83;;;;;;;;;;5115958;28;20473;-66
2021/08/13 07:44:00;;;;;;;4.95;2.67;;;;;;;;;;5115612;28;20102;-67
2021/08/13 07:46:26;;;;;;;5.28;2.22;;;;;;;;;;5115893;28;20031;-64
2021/08/13 07:48:52;;;;;;;5.60;2.97;;;;;;;;;;5115535;28;20032;-64
2021/08/13 07:51:18;;;;;;;4.93;2.25;;;;;;;;;;5115785;28;20375;-66
2021/08/13 07:53:44;;;;;;;5.22;2.33;;;;;;;;;;5115771;28;20092;-65
2021/08/13 07:56:10;;;;;;;5.30;2.83;;;;;;;;;;5115109;28;20026;-66
2021/08/13 07:58:37;;;;;;;4.97;2.63;;;;;;;;;;5115558;28;20051;-65
2021/08/13 08:01:03;;;;;;;7.45;3.25;;;;;;;;;;5115625;28;20039;-66
2021/08/13 08:03:29;;;;;;;6.30;2.90;;;;;;;;;;5115404;28;20539;-66
2021/08/13 08:05:55;;;;;;;7.13;2.75;;;;;;;;;;5115681;28;20079;-65
2021/08/13 08:08:22;;;;;;;6.30;3.03;;;;;;;;;;5115751;28;20387;-65
2021/08/13 08:10:48;;;;;;;11.52;3.05;;;;;;;;;;5114981;28;20034;-66
2021/08/13 08:13:15;;;;;;;7.60;2.95;;;;;;;;;;5115462;28;20012;-66
2021/08/13 08:15:42;;;;;;;5.63;2.88;;;;;;;;;;5097143;28;20023;-65
2021/08/13 08:18:08;;;;;;;5.50;2.40;;;;;;;;;;5111043;27;20365;-65
2021/08/13 08:20:36;;;;;;;6.90;2.65;;;;;;;;;;5114264;28;20065;-65
2021/08/13 08:23:05;;;;;;;5.78;2.88;;;;;;;;;;5113693;27;20121;-65
2021/08/13 08:25:32;;;;;;;4.50;2.15;;;;;;;;;;5108744;27;20357;-65
2021/08/13 08:27:58;;;;;;;6.10;2.67;;;;;;;;;;5094805;28;20020;-66
2021/08/13 08:30:25;;;;;;;5.57;2.38;;;;;;;;;;5076187;28;20024;-66
2021/08/13 08:32:54;;;;;;;4.82;2.50;;;;;;;;;;5094381;28;20020;-66
2021/08/13 08:35:21;;;;;;;6.45;2.63;;;;;;;;;;5094368;28;20024;-66
2021/08/13 08:37:54;;;;;;;5.65;2.28;;;;;;;;;;5094360;28;20407;-65
2021/08/13 08:40:39;;;;;;;4.35;2.42;;;;;;;;;;5075965;28;20035;-65
2021/08/13 08:43:06;;;;;;;8.50;3.22;;;;;;;;;;5094324;28;20039;-65
2021/08/13 08:45:34;;;;;;;4.18;2.05;;;;;;;;;;5093610;28;20060;-65
2021/08/13 08:48:10;;;;;;;7.85;2.22;;;;;;;;;;5094463;28;20028;-65
2021/08/13 08:50:38;;;;;;;6.20;2.88;;;;;;;;;;5094040;28;20032;-66
2021/08/13 08:53:09;;;;;;;7.15;2.58;;;;;;;;;;5093977;28;20016;-66
2021/08/13 08:55:35;;;;;;;4.15;2.10;;;;;;;;;;5094320;28;20031;-66
2021/08/13 08:58:02;;;;;;;4.65;2.13;;;;;;;;;;5093781;28;20118;-66
2021/08/13 09:00:29;;;;;;;6.03;2.22;;;;;;;;;;5094029;28;20384;-66
2021/08/13 09:02:55;;;;;;;4.88;2.15;;;;;;;;;;5076123;28;20029;-66
2021/08/13 09:05:22;;;;;;;4.88;2.30;;;;;;;;;;5094104;28;20024;-66
2021/08/13 09:07:48;;;;;;;5.38;2.08;;;;;;;;;;5075625;28;20024;-66
2021/08/13 09:10:14;;;;;;;4.63;1.92;;;;;;;;;;5093931;28;20020;-66
2021/08/13 09:12:41;;;;;;;6.18;2.10;;;;;;;;;;5093992;28;20016;-66
2021/08/13 09:15:26;;;;;;;5.38;2.40;;;;;;;;;;5093118;28;20024;-66
2021/08/13 09:18:12;;;;;;;5.57;2.10;;;;;;;;;;5093726;28;20032;-66
2021/08/13 09:20:39;;;;;;;5.10;1.98;;;;;;;;;;5093524;28;20024;-67
2021/08/13 09:23:05;;;;;;;4.80;2.20;;;;;;;;;;5094165;28;20024;-67
2021/08/13 09:25:31;;;;;;;5.10;2.22;;;;;;;;;;5093852;28;20044;-66
2021/08/13 09:27:57;;;;;;;3.70;2.00;;;;;;;;;;5093425;28;20039;-66
2021/08/13 09:30:24;;;;;;;6.07;2.40;;;;;;;;;;5093804;28;20384;-66
2021/08/13 09:32:56;;;;;;;3.90;2.22;;;;;;;;;;5093571;28;20031;-67
2021/08/13 09:35:42;;;;;;;3.05;1.70;;;;;;;;;;5093378;28;20020;-67
2021/08/13 09:38:12;;;;;;;5.05;2.03;;;;;;;;;;5093731;28;20567;-67
2021/08/13 09:40:40;;;;;;;3.95;1.83;;;;;;;;;;5093698;28;20019;-66
2021/08/13 09:43:06;;;;;;;4.65;1.85;;;;;;;;;;5093243;28;20020;-67
2021/08/13 09:45:33;;;;;;;3.50;1.60;;;;;;;;;;5093913;28;20024;-66
2021/08/13 09:47:59;;;;;;;3.35;2.03;;;;;;;;;;5093446;28;20024;-66
2021/08/13 09:50:34;;;;;;;4.60;2.17;;;;;;;;;;5093183;28;20100;-65
2021/08/13 09:53:15;;;;;;;6.82;2.50;;;;;;;;;;5093597;28;20061;-67
2021/08/13 09:55:41;;;;;;;6.75;1.75;;;;;;;;;;5093239;28;20024;-67
2021/08/13 09:58:11;;;;;;;5.25;1.92;;;;;;;;;;5075145;28;20044;-67
2021/08/13 10:00:47;;;;;;;5.22;2.00;;;;;;;;;;5093504;28;20024;-67
2021/08/13 10:03:14;;;;;;;9.38;2.00;;;;;;;;;;5075153;28;20089;-67
2021/08/13 10:05:41;;;;;;;3.30;2.00;;;;;;;;;;5093464;28;20407;-68
2021/08/13 10:08:08;;;;;;;5.45;1.88;;;;;;;;;;5093390;28;20027;-68
2021/08/13 10:10:35;;;;;;;5.30;1.80;;;;;;;;;;5093038;28;20051;-68
2021/08/13 10:13:02;;;;;;;5.05;1.92;;;;;;;;;;5093542;28;20495;-67
2021/08/13 10:15:39;;;;;;;3.42;1.50;;;;;;;;;;5093305;28;20088;-67
2021/08/13 10:18:09;;;;;;;4.90;1.70;;;;;;;;;;5074652;28;20040;-66
2021/08/13 10:20:37;;;;;;;3.95;1.90;;;;;;;;;;5075424;28;20024;-67
2021/08/13 10:23:04;;;;;;;4.93;2.22;;;;;;;;;;5093297;28;20032;-67
2021/08/13 10:25:30;;;;;;;4.18;1.98;;;;;;;;;;5074747;28;20028;-67
2021/08/13 10:27:56;;;;;;;3.22;1.50;;;;;;;;;;5093235;28;20103;-67
2021/08/13 10:30:23;;;;;;;3.47;1.60;;;;;;;;;;5075093;28;20490;-67
2021/08/13 10:32:56;;;;;;;3.70;1.65;;;;;;;;;;5092761;28;20024;-67
2021/08/13 10:35:23;;;;;;;2.90;1.40;;;;;;;;;;5075094;28;20430;-67
2021/08/13 10:37:49;;;;;;;5.05;1.60;;;;;;;;;;5092652;28;20032;-67
2021/08/13 10:40:18;;;;;;;4.38;1.90;;;;;;;;;;5093227;28;20031;-68
2021/08/13 10:42:46;;;;;;;4.22;1.73;;;;;;;;;;5074938;28;20024;-68
2021/08/13 10:45:14;;;;;;;3.17;1.50;;;;;;;;;;5096128;28;20020;-67
2021/08/13 10:47:59;;;;;;;4.13;1.65;;;;;;;;;;5096809;28;20020;-67
2021/08/13 10:50:25;;;;;;;3.65;1.60;;;;;;;;;;5096835;28;20035;-67
2021/08/13 10:52:52;;;;;;;3.65;1.60;;;;;;;;;;5096560;28;20024;-67
2021/08/13 10:55:37;;;;;;;5.65;2.08;;;;;;;;;;5078524;28;20020;-67
2021/08/13 10:58:03;;;;;;;5.13;2.40;;;;;;;;;;5078170;28;20052;-67
2021/08/13 11:00:52;;;;;;;3.03;1.45;;;;;;;;;;5096170;28;20473;-67
2021/08/13 11:03:19;;;;;;;3.70;1.58;;;;;;;;;;5049764;28;20037;-67
2021/08/13 11:05:55;;;;;;;2.92;1.70;;;;;;;;;;5077826;28;20024;-67
2021/08/13 11:08:22;;;;;;;3.78;1.73;;;;;;;;;;5096455;28;20032;-67
2021/08/13 11:10:49;;;;;;;3.22;1.58;;;;;;;;;;5096442;28;20021;-67
2021/08/13 11:13:19;;;;;;;3.35;1.60;;;;;;;;;;5096101;28;20039;-67
2021/08/13 11:15:46;;;;;;;2.95;1.83;;;;;;;;;;5096654;28;20024;-67
2021/08/13 11:18:29;;;;;;;3.85;1.90;;;;;;;;;;5096394;28;20042;-67
2021/08/13 11:20:56;;;;;;;2.40;1.42;;;;;;;;;;5095877;28;20048;-67
2021/08/13 11:23:22;;;;;;;3.05;1.70;;;;;;;;;;5077848;28;20024;-67
2021/08/13 11:25:49;;;;;;;4.72;1.83;;;;;;;;;;5096094;28;20426;-67
2021/08/13 11:28:18;;;;;;;2.83;1.58;;;;;;;;;;5095646;28;20099;-68
2021/08/13 11:30:45;;;;;;;4.15;1.73;;;;;;;;;;5096300;28;20020;-66
2021/08/13 11:33:29;;;;;;;3.72;1.50;;;;;;;;;;5096000;28;20484;-67
2021/08/13 11:35:57;;;;;;;5.82;1.73;;;;;;;;;;5095481;28;20024;-67
2021/08/13 11:38:41;;;;;;;4.07;1.95;;;;;;;;;;5077572;28;20052;-67
2021/08/13 11:41:20;;;;;;;2.25;1.50;;;;;;;;;;5077230;28;20361;-67
2021/08/13 11:43:47;;;;;;;3.22;1.58;;;;;;;;;;5095761;28;20020;-68
2021/08/13 11:46:27;;;;;;;5.45;2.00;;;;;;;;;;5095931;28;20024;-68
2021/08/13 11:49:00;;;;;;;3.45;1.75;;;;;;;;;;5095293;28;20103;-68
2021/08/13 11:51:27;;;;;;;2.42;1.15;;;;;;;;;;5077852;28;20413;-68
2021/08/13 11:53:54;;;;;;;1.90;1.20;;;;;;;;;;5095628;28;20031;-68
2021/08/13 11:56:23;;;;;;;2.75;1.23;;;;;;;;;;5094841;28;20028;-67
2021/08/13 11:59:02;;;;;;;3.95;1.75;;;;;;;;;;5095659;28;20027;-67
2021/08/13 12:01:28;;;;;;;4.75;1.58;;;;;;;;;;5095499;28;20039;-67
2021/08/13 12:03:55;;;;;;;2.63;1.52;;;;;;;;;;5095087;28;20024;-67
2021/08/13 12:06:21;;;;;;;3.03;1.58;;;;;;;;;;5095713;28;20497;-67
2021/08/13 12:08:48;;;;;;;3.90;1.77;;;;;;;;;;5095221;28;20099;-67
2021/08/13 12:11:21;;;;;;;3.80;1.55;;;;;;;;;;5094871;28;20020;-67
2021/08/13 12:13:47;;;;;;;3.08;1.88;;;;;;;;;;5077088;28;20024;-67
2021/08/13 12:16:17;;;;;;;5.15;1.80;;;;;;;;;;5094754;28;20050;-67
2021/08/13 12:18:43;;;;;;;3.35;1.77;;;;;;;;;;5095439;28;20040;-67
2021/08/13 12:21:09;;;;;;;3.67;1.52;;;;;;;;;;5095202;28;20038;-68
2021/08/13 12:23:36;;;;;;;5.40;1.77;;;;;;;;;;5094665;28;20028;-67
2021/08/13 12:26:03;;;;;;;5.93;1.83;;;;;;;;;;5094991;28;20493;-67
2021/08/13 12:28:32;;;;;;;2.83;1.60;;;;;;;;;;5094932;28;20101;-67
2021/08/13 12:31:06;;;;;;;4.10;1.60;;;;;;;;;;5094878;28;20475;-67
2021/08/13 12:33:32;;;;;;;4.15;1.88;;;;;;;;;;5095138;28;20020;-67
2021/08/13 12:35:58;;;;;;;4.07;1.88;;;;;;;;;;5094796;28;20020;-67
2021/08/13 12:38:37;;;;;;;4.25;1.80;;;;;;;;;;5094287;28;20105;-67
2021/08/13 12:41:04;;;;;;;5.97;2.00;;;;;;;;;;5094666;28;20031;-67
2021/08/13 12:43:30;;;;;;;3.90;2.13;;;;;;;;;;5094667;28;20103;-67
2021/08/13 12:45:57;;;;;;;3.72;1.70;;;;;;;;;;5094190;28;20145;-67
2021/08/13 12:48:24;;;;;;;2.72;1.70;;;;;;;;;;5094692;28;20028;-68
2021/08/13 12:50:57;;;;;;;6.78;1.95;;;;;;;;;;5076352;28;20107;-67
2021/08/13 12:53:33;;;;;;;3.75;1.85;;;;;;;;;;5094090;28;20051;-67
2021/08/13 12:56:00;;;;;;;2.40;1.55;;;;;;;;;;5094418;28;20430;-67
2021/08/13 12:58:29;;;;;;;4.57;2.03;;;;;;;;;;5093741;28;20426;-68
2021/08/13 13:00:55;;;;;;;3.80;1.58;;;;;;;;;;5094581;28;20020;-67
2021/08/13 13:03:22;;;;;;;3.85;1.90;;;;;;;;;;5094591;28;20039;-67
2021/08/13 13:06:01;;;;;;;3.88;1.83;;;;;;;;;;5075303;28;20111;-66
2021/08/13 13:08:27;;;;;;;3.53;2.05;;;;;;;;;;5094282;28;20025;-67
2021/08/13 13:10:54;;;;;;;6.32;2.00;;;;;;;;;;5094243;28;20039;-67
2021/08/13 13:13:21;;;;;;;16.13;2.25;;;;;;;;;;5093806;28;20028;-67
2021/08/13 13:15:47;;;;;;;4.13;1.85;;;;;;;;;;5075945;28;20132;-67
2021/08/13 13:18:24;;;;;;;3.55;1.67;;;;;;;;;;5094013;28;20040;-66
2021/08/13 13:20:50;;;;;;;4.65;1.83;;;;;;;;;;5093633;28;20532;-66
2021/08/13 13:23:19;;;;;;;6.15;1.63;;;;;;;;;;5094106;28;20032;-67
2021/08/13 13:25:46;;;;;;;4.05;1.67;;;;;;;;;;5093991;28;20103;-67
2021/08/13 13:28:13;;;;;;;4.47;1.98;;;;;;;;;;5075332;28;20024;-66
2021/08/13 13:30:41;;;;;;;3.17;1.70;;;;;;;;;;5094481;28;20020;-66
2021/08/13 13:33:14;;;;;;;5.63;2.13;;;;;;;;;;5075669;28;20024;-67
2021/08/13 13:35:44;;;;;;;5.38;2.00;;;;;;;;;;5093332;28;20020;-67
2021/08/13 13:38:13;;;;;;;4.72;1.92;;;;;;;;;;5093856;28;20388;-67
2021/08/13 13:40:41;;;;;;;3.42;1.65;;;;;;;;;;5075224;28;20024;-67
2021/08/13 13:43:10;;;;;;;3.50;1.83;;;;;;;;;;5093672;28;20024;-66
2021/08/13 13:45:38;;;;;;;4.95;2.00;;;;;;;;;;5093733;28;20020;-67
2021/08/13 13:48:05;;;;;;;4.22;2.03;;;;;;;;;;5075029;28;20043;-67
2021/08/13 13:50:31;;;;;;;4.50;2.05;;;;;;;;;;5093685;28;20537;-67
2021/08/13 13:52:58;;;;;;;4.13;1.80;;;;;;;;;;5093701;28;20024;-67
2021/08/13 13:55:27;;;;;;;3.35;1.83;;;;;;;;;;5093189;28;20086;-67
2021/08/13 13:57:53;;;;;;;5.50;1.80;;;;;;;;;;5093243;28;20044;-66
2021/08/13 14:00:20;;;;;;;6.97;2.42;;;;;;;;;;5093533;28;20017;-66
2021/08/13 14:02:47;;;;;;;3.60;1.92;;;;;;;;;;5093103;28;20077;-66
2021/08/13 14:05:14;;;;;;;4.03;1.95;;;;;;;;;;5093558;28;20024;-66
2021/08/13 14:07:41;;;;;;;6.28;1.80;;;;;;;;;;5075371;28;20035;-66
2021/08/13 14:10:09;;;;;;;4.18;2.03;;;;;;;;;;5074891;28;20384;-66
2021/08/13 14:12:36;;;;;;;5.55;1.73;;;;;;;;;;5093392;28;20032;-66
2021/08/13 14:15:06;;;;;;;6.20;1.98;;;;;;;;;;5093423;28;20468;-68
2021/08/13 14:17:32;;;;;;;3.17;1.50;;;;;;;;;;5092892;28;20032;-67
2021/08/13 14:19:59;;;;;;;3.75;1.80;;;;;;;;;;5096906;28;20047;-67
2021/08/13 14:22:25;;;;;;;4.97;1.98;;;;;;;;;;5097825;28;20032;-66
2021/08/13 14:24:51;;;;;;;4.38;1.65;;;;;;;;;;5097007;28;20418;-67
2021/08/13 14:27:17;;;;;;;3.83;1.70;;;;;;;;;;5097213;28;20020;-66
2021/08/13 14:29:43;;;;;;;3.95;2.00;;;;;;;;;;5078742;28;20480;-66
2021/08/13 14:32:10;;;;;;;5.05;1.50;;;;;;;;;;5097190;28;20020;-67
2021/08/13 14:34:36;;;;;;;3.40;1.88;;;;;;;;;;5097149;28;20494;-67
2021/08/13 14:37:02;;;;;;;3.10;1.58;;;;;;;;;;5096610;28;20036;-67
2021/08/13 14:39:28;;;;;;;3.75;1.90;;;;;;;;;;5097164;28;20024;-67
2021/08/13 14:41:55;;;;;;;5.80;2.20;;;;;;;;;;5096991;28;20104;-68
2021/08/13 14:44:21;;;;;;;4.47;2.15;;;;;;;;;;5096818;28;20572;-67
2021/08/13 14:46:47;;;;;;;3.53;1.85;;;;;;;;;;5096900;28;20016;-67
2021/08/13 14:49:14;;;;;;;3.70;1.55;;;;;;;;;;5097380;28;20032;-67
2021/08/13 14:51:40;;;;;;;3.72;2.13;;;;;;;;;;5096502;28;20073;-68
2021/08/13 14:54:07;;;;;;;3.42;1.92;;;;;;;;;;5078571;28;20432;-67
2021/08/13 14:56:36;;;;;;;6.35;1.90;;;;;;;;;;5078310;28;20047;-68
2021/08/13 14:59:05;;;;;;;5.78;2.22;;;;;;;;;;5096395;28;20028;-68
2021/08/13 15:01:31;;;;;;;4.97;2.17;;;;;;;;;;5078513;28;20016;-67
2021/08/13 15:03:58;;;;;;;4.18;2.08;;;;;;;;;;5096912;28;20145;-65
2021/08/13 15:06:24;;;;;;;6.60;2.38;;;;;;;;;;5096181;28;20388;-66
2021/08/13 15:08:50;;;;;;;5.25;2.15;;;;;;;;;;5096575;28;20020;-66
2021/08/13 15:11:16;;;;;;;4.15;2.17;;;;;;;;;;5096431;28;20511;-67
2021/08/13 15:13:42;;;;;;;4.15;2.42;;;;;;;;;;5096142;28;20024;-67
2021/08/13 15:16:08;;;;;;;5.72;2.55;;;;;;;;;;5096445;28;20027;-67
2021/08/13 15:18:35;;;;;;;5.38;2.85;;;;;;;;;;5096339;28;20043;-66
2021/08/13 15:21:01;;;;;;;6.18;2.60;;;;;;;;;;5095951;28;20028;-66
2021/08/13 15:23:27;;;;;;;6.18;2.42;;;;;;;;;;5096371;28;20038;-67